sensor_id;sensor_type;location;lat;lon;timestamp;P1;durP1;ratioP1;P2;durP2;ratioP2
38715;SDS011;24833;49.324;8.694;2023-02-12T00:01:19;21.92;;;14.65;;
38715;SDS011;24833;49.324;8.694;2023-02-12T00:03:48;21.10;;;13.65;;
38715;SDS011;24833;49.324;8.694;2023-02-12T00:06:15;21.40;;;12.93;;
38715;SDS011;24833;49.324;8.694;2023-02-12T00:08:42;19.05;;;12.30;;
38715;SDS011;24833;49.324;8.694;2023-02-12T00:13:40;18.63;;;12.38;;
38715;SDS011;24833;49.324;8.694;2023-02-12T00:16:08;18.67;;;12.25;;
38715;SDS011;24833;49.324;8.694;2023-02-12T00:18:41;18.05;;;11.32;;
38715;SDS011;24833;49.324;8.694;2023-02-12T00:21:09;13.95;;;10.90;;
38715;SDS011;24833;49.324;8.694;2023-02-12T00:23:38;18.85;;;11.52;;
38715;SDS011;24833;49.324;8.694;2023-02-12T00:28:43;17.73;;;10.80;;
38715;SDS011;24833;49.324;8.694;2023-02-12T00:31:15;17.23;;;11.25;;
38715;SDS011;24833;49.324;8.694;2023-02-12T00:33:46;15.30;;;10.18;;
38715;SDS011;24833;49.324;8.694;2023-02-12T00:36:14;15.88;;;10.70;;
38715;SDS011;24833;49.324;8.694;2023-02-12T00:38:49;13.13;;;9.88;;
38715;SDS011;24833;49.324;8.694;2023-02-12T00:41:19;15.48;;;10.20;;
38715;SDS011;24833;49.324;8.694;2023-02-12T00:43:48;15.38;;;10.05;;
38715;SDS011;24833;49.324;8.694;2023-02-12T00:46:15;15.68;;;10.65;;
38715;SDS011;24833;49.324;8.694;2023-02-12T00:48:43;14.98;;;10.05;;
38715;SDS011;24833;49.324;8.694;2023-02-12T00:51:10;13.40;;;10.32;;
38715;SDS011;24833;49.324;8.694;2023-02-12T00:53:37;15.35;;;10.10;;
38715;SDS011;24833;49.324;8.694;2023-02-12T00:56:05;12.75;;;8.98;;
38715;SDS011;24833;49.324;8.694;2023-02-12T00:58:32;14.73;;;9.13;;
38715;SDS011;24833;49.324;8.694;2023-02-12T01:00:59;13.00;;;8.50;;
38715;SDS011;24833;49.324;8.694;2023-02-12T01:03:26;14.52;;;8.73;;
38715;SDS011;24833;49.324;8.694;2023-02-12T01:05:53;14.27;;;8.88;;
38715;SDS011;24833;49.324;8.694;2023-02-12T01:08:22;13.55;;;8.95;;
38715;SDS011;24833;49.324;8.694;2023-02-12T01:10:53;13.70;;;8.63;;
38715;SDS011;24833;49.324;8.694;2023-02-12T01:13:27;13.85;;;8.55;;
38715;SDS011;24833;49.324;8.694;2023-02-12T01:18:39;12.38;;;8.70;;
38715;SDS011;24833;49.324;8.694;2023-02-12T01:21:08;13.35;;;8.90;;
38715;SDS011;24833;49.324;8.694;2023-02-12T01:23:41;11.77;;;8.60;;
38715;SDS011;24833;49.324;8.694;2023-02-12T01:26:09;13.20;;;9.10;;
38715;SDS011;24833;49.324;8.694;2023-02-12T01:28:38;13.93;;;8.65;;
38715;SDS011;24833;49.324;8.694;2023-02-12T01:31:14;14.25;;;9.75;;
38715;SDS011;24833;49.324;8.694;2023-02-12T01:33:49;12.05;;;8.30;;
38715;SDS011;24833;49.324;8.694;2023-02-12T01:36:18;14.02;;;8.48;;
38715;SDS011;24833;49.324;8.694;2023-02-12T01:38:47;13.38;;;7.47;;
38715;SDS011;24833;49.324;8.694;2023-02-12T01:41:15;11.10;;;7.72;;
38715;SDS011;24833;49.324;8.694;2023-02-12T01:46:45;10.90;;;7.82;;
38715;SDS011;24833;49.324;8.694;2023-02-12T01:49:18;12.20;;;8.23;;
38715;SDS011;24833;49.324;8.694;2023-02-12T01:54:52;11.23;;;7.72;;
38715;SDS011;24833;49.324;8.694;2023-02-12T01:57:25;13.10;;;8.40;;
38715;SDS011;24833;49.324;8.694;2023-02-12T01:59:56;10.95;;;8.25;;
38715;SDS011;24833;49.324;8.694;2023-02-12T02:02:25;11.23;;;8.43;;
38715;SDS011;24833;49.324;8.694;2023-02-12T02:04:55;14.15;;;8.10;;
38715;SDS011;24833;49.324;8.694;2023-02-12T02:07:29;12.80;;;8.02;;
38715;SDS011;24833;49.324;8.694;2023-02-12T02:09:56;9.65;;;7.65;;
38715;SDS011;24833;49.324;8.694;2023-02-12T02:12:27;13.27;;;7.75;;
38715;SDS011;24833;49.324;8.694;2023-02-12T02:15:15;10.27;;;7.18;;
38715;SDS011;24833;49.324;8.694;2023-02-12T02:17:49;8.70;;;6.55;;
38715;SDS011;24833;49.324;8.694;2023-02-12T02:20:45;9.82;;;7.15;;
38715;SDS011;24833;49.324;8.694;2023-02-12T02:26:32;10.43;;;7.20;;
38715;SDS011;24833;49.324;8.694;2023-02-12T02:32:49;10.63;;;6.70;;
38715;SDS011;24833;49.324;8.694;2023-02-12T02:39:08;9.70;;;6.90;;
38715;SDS011;24833;49.324;8.694;2023-02-12T02:41:58;12.02;;;7.72;;
38715;SDS011;24833;49.324;8.694;2023-02-12T02:44:53;11.27;;;7.60;;
38715;SDS011;24833;49.324;8.694;2023-02-12T02:47:34;12.25;;;8.20;;
38715;SDS011;24833;49.324;8.694;2023-02-12T02:50:13;13.40;;;8.55;;
38715;SDS011;24833;49.324;8.694;2023-02-12T02:52:49;10.88;;;7.72;;
38715;SDS011;24833;49.324;8.694;2023-02-12T02:55:23;13.00;;;7.95;;
38715;SDS011;24833;49.324;8.694;2023-02-12T02:57:55;12.13;;;8.18;;
38715;SDS011;24833;49.324;8.694;2023-02-12T03:00:41;11.82;;;8.68;;
38715;SDS011;24833;49.324;8.694;2023-02-12T03:06:19;11.00;;;7.78;;
38715;SDS011;24833;49.324;8.694;2023-02-12T03:09:25;12.27;;;8.70;;
38715;SDS011;24833;49.324;8.694;2023-02-12T03:12:13;13.98;;;8.30;;
38715;SDS011;24833;49.324;8.694;2023-02-12T03:17:44;12.50;;;8.65;;
38715;SDS011;24833;49.324;8.694;2023-02-12T03:20:18;12.68;;;8.70;;
38715;SDS011;24833;49.324;8.694;2023-02-12T03:22:55;14.77;;;9.30;;
38715;SDS011;24833;49.324;8.694;2023-02-12T03:28:34;11.52;;;8.52;;
38715;SDS011;24833;49.324;8.694;2023-02-12T03:34:10;15.00;;;9.90;;
38715;SDS011;24833;49.324;8.694;2023-02-12T03:39:50;15.35;;;10.18;;
38715;SDS011;24833;49.324;8.694;2023-02-12T03:45:51;13.73;;;8.95;;
38715;SDS011;24833;49.324;8.694;2023-02-12T03:48:48;15.63;;;9.80;;
38715;SDS011;24833;49.324;8.694;2023-02-12T03:51:38;14.23;;;9.60;;
38715;SDS011;24833;49.324;8.694;2023-02-12T03:54:09;11.52;;;8.82;;
38715;SDS011;24833;49.324;8.694;2023-02-12T03:56:43;14.77;;;9.57;;
38715;SDS011;24833;49.324;8.694;2023-02-12T03:59:20;14.55;;;9.95;;
38715;SDS011;24833;49.324;8.694;2023-02-12T04:01:50;11.55;;;9.00;;
38715;SDS011;24833;49.324;8.694;2023-02-12T04:04:19;12.68;;;9.13;;
38715;SDS011;24833;49.324;8.694;2023-02-12T04:06:48;10.50;;;7.53;;
38715;SDS011;24833;49.324;8.694;2023-02-12T04:09:17;12.15;;;8.75;;
38715;SDS011;24833;49.324;8.694;2023-02-12T04:17:49;11.95;;;8.38;;
38715;SDS011;24833;49.324;8.694;2023-02-12T04:20:27;13.27;;;8.02;;
38715;SDS011;24833;49.324;8.694;2023-02-12T04:28:56;11.82;;;8.48;;
38715;SDS011;24833;49.324;8.694;2023-02-12T04:31:50;11.95;;;8.35;;
38715;SDS011;24833;49.324;8.694;2023-02-12T04:34:44;13.15;;;7.68;;
38715;SDS011;24833;49.324;8.694;2023-02-12T04:37:41;11.20;;;7.38;;
38715;SDS011;24833;49.324;8.694;2023-02-12T04:40:16;13.10;;;9.00;;
38715;SDS011;24833;49.324;8.694;2023-02-12T04:42:46;15.65;;;8.73;;
38715;SDS011;24833;49.324;8.694;2023-02-12T04:45:21;14.37;;;9.17;;
38715;SDS011;24833;49.324;8.694;2023-02-12T04:47:55;11.02;;;8.15;;
38715;SDS011;24833;49.324;8.694;2023-02-12T04:50:22;12.70;;;8.90;;
38715;SDS011;24833;49.324;8.694;2023-02-12T04:52:51;14.57;;;9.50;;
38715;SDS011;24833;49.324;8.694;2023-02-12T04:55:18;14.65;;;9.73;;
38715;SDS011;24833;49.324;8.694;2023-02-12T04:57:45;12.45;;;9.10;;
38715;SDS011;24833;49.324;8.694;2023-02-12T05:00:14;10.98;;;8.63;;
38715;SDS011;24833;49.324;8.694;2023-02-12T05:02:42;12.20;;;9.73;;
38715;SDS011;24833;49.324;8.694;2023-02-12T05:05:09;13.15;;;9.35;;
38715;SDS011;24833;49.324;8.694;2023-02-12T05:07:36;14.23;;;9.60;;
38715;SDS011;24833;49.324;8.694;2023-02-12T05:10:03;14.68;;;9.60;;
38715;SDS011;24833;49.324;8.694;2023-02-12T05:12:31;11.02;;;8.77;;
38715;SDS011;24833;49.324;8.694;2023-02-12T05:14:58;13.25;;;8.43;;
38715;SDS011;24833;49.324;8.694;2023-02-12T05:17:24;13.00;;;9.05;;
38715;SDS011;24833;49.324;8.694;2023-02-12T05:19:51;14.15;;;8.63;;
38715;SDS011;24833;49.324;8.694;2023-02-12T05:22:18;12.40;;;8.35;;
38715;SDS011;24833;49.324;8.694;2023-02-12T05:24:45;14.05;;;8.98;;
38715;SDS011;24833;49.324;8.694;2023-02-12T05:27:13;13.15;;;9.60;;
38715;SDS011;24833;49.324;8.694;2023-02-12T05:29:40;10.88;;;8.70;;
38715;SDS011;24833;49.324;8.694;2023-02-12T05:32:07;13.07;;;8.55;;
38715;SDS011;24833;49.324;8.694;2023-02-12T05:34:35;11.43;;;8.20;;
38715;SDS011;24833;49.324;8.694;2023-02-12T05:37:02;11.15;;;8.80;;
38715;SDS011;24833;49.324;8.694;2023-02-12T05:39:29;14.10;;;8.43;;
38715;SDS011;24833;49.324;8.694;2023-02-12T05:41:56;11.13;;;8.55;;
38715;SDS011;24833;49.324;8.694;2023-02-12T05:44:23;11.25;;;8.93;;
38715;SDS011;24833;49.324;8.694;2023-02-12T05:46:50;12.20;;;8.73;;
38715;SDS011;24833;49.324;8.694;2023-02-12T05:49:17;11.55;;;8.98;;
38715;SDS011;24833;49.324;8.694;2023-02-12T05:51:44;11.32;;;8.38;;
38715;SDS011;24833;49.324;8.694;2023-02-12T05:54:11;12.85;;;8.32;;
38715;SDS011;24833;49.324;8.694;2023-02-12T05:56:42;14.98;;;9.63;;
38715;SDS011;24833;49.324;8.694;2023-02-12T05:59:16;15.90;;;9.38;;
38715;SDS011;24833;49.324;8.694;2023-02-12T06:01:46;12.52;;;9.10;;
38715;SDS011;24833;49.324;8.694;2023-02-12T06:04:17;14.13;;;9.48;;
38715;SDS011;24833;49.324;8.694;2023-02-12T06:06:53;13.00;;;8.85;;
38715;SDS011;24833;49.324;8.694;2023-02-12T06:09:21;14.68;;;9.48;;
38715;SDS011;24833;49.324;8.694;2023-02-12T06:11:49;12.55;;;8.77;;
38715;SDS011;24833;49.324;8.694;2023-02-12T06:14:17;12.88;;;8.77;;
38715;SDS011;24833;49.324;8.694;2023-02-12T06:16:46;13.27;;;9.57;;
38715;SDS011;24833;49.324;8.694;2023-02-12T06:19:15;16.25;;;9.48;;
38715;SDS011;24833;49.324;8.694;2023-02-12T06:21:43;12.98;;;9.15;;
38715;SDS011;24833;49.324;8.694;2023-02-12T06:24:14;15.02;;;9.20;;
38715;SDS011;24833;49.324;8.694;2023-02-12T06:26:42;12.95;;;8.85;;
38715;SDS011;24833;49.324;8.694;2023-02-12T06:29:09;13.10;;;9.35;;
38715;SDS011;24833;49.324;8.694;2023-02-12T06:31:36;11.88;;;9.05;;
38715;SDS011;24833;49.324;8.694;2023-02-12T06:34:04;12.68;;;8.98;;
38715;SDS011;24833;49.324;8.694;2023-02-12T06:36:38;15.93;;;10.13;;
38715;SDS011;24833;49.324;8.694;2023-02-12T06:39:08;14.27;;;9.98;;
38715;SDS011;24833;49.324;8.694;2023-02-12T06:41:36;17.48;;;10.27;;
38715;SDS011;24833;49.324;8.694;2023-02-12T06:44:03;15.63;;;9.63;;
38715;SDS011;24833;49.324;8.694;2023-02-12T06:46:31;16.58;;;9.90;;
38715;SDS011;24833;49.324;8.694;2023-02-12T06:48:59;13.07;;;9.23;;
38715;SDS011;24833;49.324;8.694;2023-02-12T06:51:27;14.02;;;10.10;;
38715;SDS011;24833;49.324;8.694;2023-02-12T06:53:54;13.38;;;9.48;;
38715;SDS011;24833;49.324;8.694;2023-02-12T06:56:22;15.95;;;9.77;;
38715;SDS011;24833;49.324;8.694;2023-02-12T06:58:54;17.20;;;10.60;;
38715;SDS011;24833;49.324;8.694;2023-02-12T07:01:24;17.80;;;11.27;;
38715;SDS011;24833;49.324;8.694;2023-02-12T07:03:54;15.30;;;9.85;;
38715;SDS011;24833;49.324;8.694;2023-02-12T07:06:25;12.25;;;8.57;;
38715;SDS011;24833;49.324;8.694;2023-02-12T07:08:54;12.35;;;9.20;;
38715;SDS011;24833;49.324;8.694;2023-02-12T07:11:26;14.45;;;9.70;;
38715;SDS011;24833;49.324;8.694;2023-02-12T07:13:56;15.50;;;10.20;;
38715;SDS011;24833;49.324;8.694;2023-02-12T07:16:23;12.98;;;9.23;;
38715;SDS011;24833;49.324;8.694;2023-02-12T07:18:51;14.55;;;10.48;;
38715;SDS011;24833;49.324;8.694;2023-02-12T07:21:18;17.20;;;10.40;;
38715;SDS011;24833;49.324;8.694;2023-02-12T07:23:46;14.23;;;9.98;;
38715;SDS011;24833;49.324;8.694;2023-02-12T07:26:17;17.15;;;10.35;;
38715;SDS011;24833;49.324;8.694;2023-02-12T07:28:46;15.50;;;9.85;;
38715;SDS011;24833;49.324;8.694;2023-02-12T07:31:19;17.08;;;10.18;;
38715;SDS011;24833;49.324;8.694;2023-02-12T07:33:48;16.27;;;10.43;;
38715;SDS011;24833;49.324;8.694;2023-02-12T07:36:20;15.15;;;10.75;;
38715;SDS011;24833;49.324;8.694;2023-02-12T07:38:48;16.80;;;10.43;;
38715;SDS011;24833;49.324;8.694;2023-02-12T07:41:20;18.95;;;11.63;;
38715;SDS011;24833;49.324;8.694;2023-02-12T07:43:57;15.80;;;10.90;;
38715;SDS011;24833;49.324;8.694;2023-02-12T07:46:30;14.95;;;10.52;;
38715;SDS011;24833;49.324;8.694;2023-02-12T07:49:19;16.13;;;11.10;;
38715;SDS011;24833;49.324;8.694;2023-02-12T07:51:47;16.40;;;11.45;;
38715;SDS011;24833;49.324;8.694;2023-02-12T07:54:15;15.88;;;10.68;;
38715;SDS011;24833;49.324;8.694;2023-02-12T07:56:43;17.73;;;11.40;;
38715;SDS011;24833;49.324;8.694;2023-02-12T07:59:12;16.45;;;11.25;;
38715;SDS011;24833;49.324;8.694;2023-02-12T08:01:47;16.77;;;11.52;;
38715;SDS011;24833;49.324;8.694;2023-02-12T08:04:16;16.77;;;11.60;;
38715;SDS011;24833;49.324;8.694;2023-02-12T08:06:50;15.68;;;11.65;;
38715;SDS011;24833;49.324;8.694;2023-02-12T08:09:21;14.15;;;10.75;;
38715;SDS011;24833;49.324;8.694;2023-02-12T08:11:55;16.20;;;11.40;;
38715;SDS011;24833;49.324;8.694;2023-02-12T08:14:23;17.40;;;11.15;;
38715;SDS011;24833;49.324;8.694;2023-02-12T08:16:51;16.35;;;11.50;;
38715;SDS011;24833;49.324;8.694;2023-02-12T08:19:18;19.02;;;11.93;;
38715;SDS011;24833;49.324;8.694;2023-02-12T08:21:52;16.80;;;11.68;;
38715;SDS011;24833;49.324;8.694;2023-02-12T08:24:21;18.52;;;11.38;;
38715;SDS011;24833;49.324;8.694;2023-02-12T08:26:50;14.82;;;11.48;;
38715;SDS011;24833;49.324;8.694;2023-02-12T08:29:18;16.25;;;10.93;;
38715;SDS011;24833;49.324;8.694;2023-02-12T08:31:49;19.75;;;12.07;;
38715;SDS011;24833;49.324;8.694;2023-02-12T08:34:23;16.30;;;11.57;;
38715;SDS011;24833;49.324;8.694;2023-02-12T08:36:53;17.90;;;12.45;;
38715;SDS011;24833;49.324;8.694;2023-02-12T08:39:22;17.50;;;11.18;;
38715;SDS011;24833;49.324;8.694;2023-02-12T08:41:54;16.90;;;11.45;;
38715;SDS011;24833;49.324;8.694;2023-02-12T08:44:23;17.80;;;11.43;;
38715;SDS011;24833;49.324;8.694;2023-02-12T08:46:51;15.77;;;11.65;;
38715;SDS011;24833;49.324;8.694;2023-02-12T08:49:22;21.67;;;12.82;;
38715;SDS011;24833;49.324;8.694;2023-02-12T08:51:52;16.98;;;12.10;;
38715;SDS011;24833;49.324;8.694;2023-02-12T08:54:25;16.13;;;11.45;;
38715;SDS011;24833;49.324;8.694;2023-02-12T08:56:54;17.67;;;11.45;;
38715;SDS011;24833;49.324;8.694;2023-02-12T08:59:27;15.93;;;11.68;;
38715;SDS011;24833;49.324;8.694;2023-02-12T09:01:54;17.92;;;11.77;;
38715;SDS011;24833;49.324;8.694;2023-02-12T09:04:23;14.85;;;10.75;;
38715;SDS011;24833;49.324;8.694;2023-02-12T09:06:52;15.18;;;10.70;;
38715;SDS011;24833;49.324;8.694;2023-02-12T09:09:20;15.57;;;11.10;;
38715;SDS011;24833;49.324;8.694;2023-02-12T09:11:47;19.48;;;11.95;;
38715;SDS011;24833;49.324;8.694;2023-02-12T09:14:15;17.25;;;12.18;;
38715;SDS011;24833;49.324;8.694;2023-02-12T09:16:44;15.40;;;11.18;;
38715;SDS011;24833;49.324;8.694;2023-02-12T09:19:12;16.48;;;11.52;;
38715;SDS011;24833;49.324;8.694;2023-02-12T09:21:40;15.68;;;11.57;;
38715;SDS011;24833;49.324;8.694;2023-02-12T09:24:07;15.70;;;10.70;;
38715;SDS011;24833;49.324;8.694;2023-02-12T09:26:35;14.73;;;11.05;;
38715;SDS011;24833;49.324;8.694;2023-02-12T09:29:02;17.40;;;11.73;;
38715;SDS011;24833;49.324;8.694;2023-02-12T09:31:30;16.98;;;11.95;;
38715;SDS011;24833;49.324;8.694;2023-02-12T09:34:03;16.75;;;11.10;;
38715;SDS011;24833;49.324;8.694;2023-02-12T09:36:32;17.75;;;12.02;;
38715;SDS011;24833;49.324;8.694;2023-02-12T09:39:01;16.48;;;11.23;;
38715;SDS011;24833;49.324;8.694;2023-02-12T09:41:37;15.60;;;11.38;;
38715;SDS011;24833;49.324;8.694;2023-02-12T09:44:24;13.82;;;10.55;;
38715;SDS011;24833;49.324;8.694;2023-02-12T09:47:20;16.98;;;11.43;;
38715;SDS011;24833;49.324;8.694;2023-02-12T09:52:48;15.75;;;10.75;;
38715;SDS011;24833;49.324;8.694;2023-02-12T09:55:16;15.45;;;11.32;;
38715;SDS011;24833;49.324;8.694;2023-02-12T09:57:44;15.60;;;10.50;;
38715;SDS011;24833;49.324;8.694;2023-02-12T10:03:02;18.40;;;11.80;;
38715;SDS011;24833;49.324;8.694;2023-02-12T10:05:37;16.08;;;10.65;;
38715;SDS011;24833;49.324;8.694;2023-02-12T10:08:36;17.23;;;11.57;;
38715;SDS011;24833;49.324;8.694;2023-02-12T10:22:41;17.30;;;11.73;;
38715;SDS011;24833;49.324;8.694;2023-02-12T10:25:35;16.55;;;11.35;;
38715;SDS011;24833;49.324;8.694;2023-02-12T10:28:47;16.33;;;10.40;;
38715;SDS011;24833;49.324;8.694;2023-02-12T10:31:24;17.05;;;10.82;;
38715;SDS011;24833;49.324;8.694;2023-02-12T10:33:57;17.90;;;10.38;;
38715;SDS011;24833;49.324;8.694;2023-02-12T10:40:00;15.32;;;10.30;;
38715;SDS011;24833;49.324;8.694;2023-02-12T10:42:40;17.90;;;11.35;;
38715;SDS011;24833;49.324;8.694;2023-02-12T10:45:14;16.42;;;10.82;;
38715;SDS011;24833;49.324;8.694;2023-02-12T10:47:45;15.00;;;10.80;;
38715;SDS011;24833;49.324;8.694;2023-02-12T10:50:24;16.35;;;10.25;;
38715;SDS011;24833;49.324;8.694;2023-02-12T10:53:04;15.90;;;10.77;;
38715;SDS011;24833;49.324;8.694;2023-02-12T10:55:38;17.02;;;11.38;;
38715;SDS011;24833;49.324;8.694;2023-02-12T10:58:05;16.60;;;10.63;;
38715;SDS011;24833;49.324;8.694;2023-02-12T11:00:59;16.90;;;10.73;;
38715;SDS011;24833;49.324;8.694;2023-02-12T11:03:28;14.82;;;11.02;;
38715;SDS011;24833;49.324;8.694;2023-02-12T11:06:25;15.10;;;10.15;;
38715;SDS011;24833;49.324;8.694;2023-02-12T11:08:53;13.30;;;9.50;;
38715;SDS011;24833;49.324;8.694;2023-02-12T11:11:27;13.38;;;9.65;;
38715;SDS011;24833;49.324;8.694;2023-02-12T11:14:02;11.52;;;9.15;;
38715;SDS011;24833;49.324;8.694;2023-02-12T11:16:33;14.73;;;8.88;;
38715;SDS011;24833;49.324;8.694;2023-02-12T11:19:24;15.13;;;9.07;;
38715;SDS011;24833;49.324;8.694;2023-02-12T11:22:06;11.55;;;8.50;;
38715;SDS011;24833;49.324;8.694;2023-02-12T11:24:39;10.30;;;7.40;;
38715;SDS011;24833;49.324;8.694;2023-02-12T11:27:23;11.07;;;7.63;;
38715;SDS011;24833;49.324;8.694;2023-02-12T11:32:36;10.25;;;7.05;;
38715;SDS011;24833;49.324;8.694;2023-02-12T11:37:49;9.32;;;7.25;;
38715;SDS011;24833;49.324;8.694;2023-02-12T11:40:24;11.73;;;7.65;;
38715;SDS011;24833;49.324;8.694;2023-02-12T11:43:05;13.52;;;7.45;;
38715;SDS011;24833;49.324;8.694;2023-02-12T11:45:47;10.70;;;7.70;;
38715;SDS011;24833;49.324;8.694;2023-02-12T11:48:31;10.57;;;8.05;;
38715;SDS011;24833;49.324;8.694;2023-02-12T11:51:06;12.10;;;7.75;;
38715;SDS011;24833;49.324;8.694;2023-02-12T11:53:45;10.25;;;7.65;;
38715;SDS011;24833;49.324;8.694;2023-02-12T11:56:16;9.98;;;6.95;;
38715;SDS011;24833;49.324;8.694;2023-02-12T11:58:44;8.95;;;6.78;;
38715;SDS011;24833;49.324;8.694;2023-02-12T12:01:18;8.15;;;6.35;;
38715;SDS011;24833;49.324;8.694;2023-02-12T12:04:01;9.05;;;6.18;;
38715;SDS011;24833;49.324;8.694;2023-02-12T12:06:40;8.38;;;5.85;;
38715;SDS011;24833;49.324;8.694;2023-02-12T12:12:15;8.57;;;5.80;;
38715;SDS011;24833;49.324;8.694;2023-02-12T12:18:11;7.50;;;5.25;;
38715;SDS011;24833;49.324;8.694;2023-02-12T12:21:31;6.43;;;4.93;;
38715;SDS011;24833;49.324;8.694;2023-02-12T12:24:23;6.18;;;4.72;;
38715;SDS011;24833;49.324;8.694;2023-02-12T12:26:56;5.72;;;4.03;;
38715;SDS011;24833;49.324;8.694;2023-02-12T12:29:43;4.28;;;3.45;;
38715;SDS011;24833;49.324;8.694;2023-02-12T12:32:20;3.67;;;3.13;;
38715;SDS011;24833;49.324;8.694;2023-02-12T12:34:49;4.43;;;2.85;;
38715;SDS011;24833;49.324;8.694;2023-02-12T12:42:54;3.40;;;2.47;;
38715;SDS011;24833;49.324;8.694;2023-02-12T12:51:34;3.75;;;2.58;;
38715;SDS011;24833;49.324;8.694;2023-02-12T12:54:48;4.30;;;2.78;;
38715;SDS011;24833;49.324;8.694;2023-02-12T13:03:23;2.78;;;2.30;;
38715;SDS011;24833;49.324;8.694;2023-02-12T13:06:04;2.17;;;1.95;;
38715;SDS011;24833;49.324;8.694;2023-02-12T13:09:04;3.85;;;1.98;;
38715;SDS011;24833;49.324;8.694;2023-02-12T13:11:49;3.05;;;2.40;;
38715;SDS011;24833;49.324;8.694;2023-02-12T13:26:56;3.03;;;2.58;;
38715;SDS011;24833;49.324;8.694;2023-02-12T13:29:28;2.85;;;2.53;;
38715;SDS011;24833;49.324;8.694;2023-02-12T13:32:22;2.85;;;2.38;;
38715;SDS011;24833;49.324;8.694;2023-02-12T13:35:12;3.38;;;2.55;;
38715;SDS011;24833;49.324;8.694;2023-02-12T13:37:46;3.03;;;2.72;;
38715;SDS011;24833;49.324;8.694;2023-02-12T13:40:19;4.65;;;3.47;;
38715;SDS011;24833;49.324;8.694;2023-02-12T13:42:55;5.70;;;3.42;;
38715;SDS011;24833;49.324;8.694;2023-02-12T13:51:44;4.72;;;4.05;;
38715;SDS011;24833;49.324;8.694;2023-02-12T13:54:54;4.35;;;3.95;;
38715;SDS011;24833;49.324;8.694;2023-02-12T13:57:52;4.20;;;3.37;;
38715;SDS011;24833;49.324;8.694;2023-02-12T14:01:03;5.00;;;3.38;;
38715;SDS011;24833;49.324;8.694;2023-02-12T14:03:34;4.57;;;3.45;;
38715;SDS011;24833;49.324;8.694;2023-02-12T14:06:09;6.40;;;4.10;;
38715;SDS011;24833;49.324;8.694;2023-02-12T14:08:51;5.40;;;3.65;;
38715;SDS011;24833;49.324;8.694;2023-02-12T14:11:33;7.75;;;3.67;;
38715;SDS011;24833;49.324;8.694;2023-02-12T14:14:23;5.20;;;3.90;;
38715;SDS011;24833;49.324;8.694;2023-02-12T14:23:02;5.10;;;3.40;;
38715;SDS011;24833;49.324;8.694;2023-02-12T14:26:02;4.72;;;3.25;;
38715;SDS011;24833;49.324;8.694;2023-02-12T14:28:51;4.47;;;3.30;;
38715;SDS011;24833;49.324;8.694;2023-02-12T14:31:36;4.68;;;3.75;;
38715;SDS011;24833;49.324;8.694;2023-02-12T14:38:59;3.45;;;3.15;;
38715;SDS011;24833;49.324;8.694;2023-02-12T14:41:32;3.80;;;3.13;;
38715;SDS011;24833;49.324;8.694;2023-02-12T14:46:59;4.10;;;3.30;;
38715;SDS011;24833;49.324;8.694;2023-02-12T14:49:39;4.68;;;3.42;;
38715;SDS011;24833;49.324;8.694;2023-02-12T14:54:50;3.95;;;3.45;;
38715;SDS011;24833;49.324;8.694;2023-02-12T14:57:34;3.63;;;3.33;;
38715;SDS011;24833;49.324;8.694;2023-02-12T15:02:43;5.28;;;3.38;;
38715;SDS011;24833;49.324;8.694;2023-02-12T15:05:29;5.78;;;4.47;;
38715;SDS011;24833;49.324;8.694;2023-02-12T15:10:48;5.43;;;4.53;;
38715;SDS011;24833;49.324;8.694;2023-02-12T15:21:26;4.95;;;3.78;;
38715;SDS011;24833;49.324;8.694;2023-02-12T15:26:36;5.70;;;3.80;;
38715;SDS011;24833;49.324;8.694;2023-02-12T15:29:21;5.50;;;3.83;;
38715;SDS011;24833;49.324;8.694;2023-02-12T15:31:52;3.88;;;3.28;;
38715;SDS011;24833;49.324;8.694;2023-02-12T15:34:23;5.45;;;3.20;;
38715;SDS011;24833;49.324;8.694;2023-02-12T15:36:56;3.70;;;2.92;;
38715;SDS011;24833;49.324;8.694;2023-02-12T15:39:26;4.35;;;3.20;;
38715;SDS011;24833;49.324;8.694;2023-02-12T15:42:27;5.13;;;3.35;;
38715;SDS011;24833;49.324;8.694;2023-02-12T15:47:40;4.53;;;2.92;;
38715;SDS011;24833;49.324;8.694;2023-02-12T15:50:12;3.72;;;3.03;;
38715;SDS011;24833;49.324;8.694;2023-02-12T15:52:43;4.32;;;2.85;;
38715;SDS011;24833;49.324;8.694;2023-02-12T15:55:16;4.30;;;3.08;;
38715;SDS011;24833;49.324;8.694;2023-02-12T15:57:51;4.13;;;2.75;;
38715;SDS011;24833;49.324;8.694;2023-02-12T16:00:42;3.38;;;2.72;;
38715;SDS011;24833;49.324;8.694;2023-02-12T16:03:29;4.82;;;3.25;;
38715;SDS011;24833;49.324;8.694;2023-02-12T16:06:09;4.10;;;2.85;;
38715;SDS011;24833;49.324;8.694;2023-02-12T16:08:39;2.90;;;2.53;;
38715;SDS011;24833;49.324;8.694;2023-02-12T16:11:16;4.15;;;2.72;;
38715;SDS011;24833;49.324;8.694;2023-02-12T16:13:47;4.78;;;3.22;;
38715;SDS011;24833;49.324;8.694;2023-02-12T16:16:19;3.78;;;2.72;;
38715;SDS011;24833;49.324;8.694;2023-02-12T16:19:02;4.97;;;3.33;;
38715;SDS011;24833;49.324;8.694;2023-02-12T16:21:53;3.97;;;2.65;;
38715;SDS011;24833;49.324;8.694;2023-02-12T16:24:37;5.13;;;2.83;;
38715;SDS011;24833;49.324;8.694;2023-02-12T16:29:48;4.15;;;2.95;;
38715;SDS011;24833;49.324;8.694;2023-02-12T16:42:54;3.85;;;3.10;;
38715;SDS011;24833;49.324;8.694;2023-02-12T16:48:06;3.45;;;2.78;;
38715;SDS011;24833;49.324;8.694;2023-02-12T16:50:34;4.03;;;3.00;;
38715;SDS011;24833;49.324;8.694;2023-02-12T16:56:13;5.65;;;2.55;;
38715;SDS011;24833;49.324;8.694;2023-02-12T16:58:47;2.72;;;2.47;;
38715;SDS011;24833;49.324;8.694;2023-02-12T17:01:23;3.03;;;2.53;;
38715;SDS011;24833;49.324;8.694;2023-02-12T17:04:06;3.17;;;2.35;;
38715;SDS011;24833;49.324;8.694;2023-02-12T17:06:39;3.33;;;2.67;;
38715;SDS011;24833;49.324;8.694;2023-02-12T17:09:06;4.47;;;2.83;;
38715;SDS011;24833;49.324;8.694;2023-02-12T17:11:33;3.70;;;2.45;;
38715;SDS011;24833;49.324;8.694;2023-02-12T17:14:00;3.30;;;2.38;;
38715;SDS011;24833;49.324;8.694;2023-02-12T17:16:27;4.20;;;2.35;;
38715;SDS011;24833;49.324;8.694;2023-02-12T17:18:57;3.00;;;2.15;;
38715;SDS011;24833;49.324;8.694;2023-02-12T17:24:23;3.40;;;2.40;;
38715;SDS011;24833;49.324;8.694;2023-02-12T17:26:53;3.80;;;2.45;;
38715;SDS011;24833;49.324;8.694;2023-02-12T17:29:21;4.57;;;3.22;;
38715;SDS011;24833;49.324;8.694;2023-02-12T17:31:50;5.35;;;2.88;;
38715;SDS011;24833;49.324;8.694;2023-02-12T17:34:21;3.53;;;2.63;;
38715;SDS011;24833;49.324;8.694;2023-02-12T17:36:49;4.80;;;3.70;;
38715;SDS011;24833;49.324;8.694;2023-02-12T17:39:17;5.38;;;3.88;;
38715;SDS011;24833;49.324;8.694;2023-02-12T17:41:45;5.18;;;3.78;;
38715;SDS011;24833;49.324;8.694;2023-02-12T17:44:12;6.53;;;4.03;;
38715;SDS011;24833;49.324;8.694;2023-02-12T17:46:41;7.03;;;3.88;;
38715;SDS011;24833;49.324;8.694;2023-02-12T17:49:08;6.60;;;3.97;;
38715;SDS011;24833;49.324;8.694;2023-02-12T17:51:35;6.28;;;4.38;;
38715;SDS011;24833;49.324;8.694;2023-02-12T17:54:03;6.28;;;4.28;;
38715;SDS011;24833;49.324;8.694;2023-02-12T17:56:30;4.95;;;3.53;;
38715;SDS011;24833;49.324;8.694;2023-02-12T17:58:57;4.60;;;3.53;;
38715;SDS011;24833;49.324;8.694;2023-02-12T18:01:24;5.40;;;3.33;;
38715;SDS011;24833;49.324;8.694;2023-02-12T18:03:52;3.65;;;3.05;;
38715;SDS011;24833;49.324;8.694;2023-02-12T18:06:23;4.40;;;3.33;;
38715;SDS011;24833;49.324;8.694;2023-02-12T18:08:55;4.40;;;3.20;;
38715;SDS011;24833;49.324;8.694;2023-02-12T18:11:23;4.03;;;2.95;;
38715;SDS011;24833;49.324;8.694;2023-02-12T18:13:51;4.90;;;3.42;;
38715;SDS011;24833;49.324;8.694;2023-02-12T18:16:21;4.73;;;3.40;;